sensor_id;sensor_type;location;lat;lon;timestamp;pressure;altitude;pressure_sealevel;temperature;humidity
59487;BME280;45298;54.918;73.504;2023-05-23T00:02:13;101218.28;;;15.43;45.15
59487;BME280;45298;54.918;73.504;2023-05-23T00:04:43;101155.38;;;14.80;45.71
59487;BME280;45298;54.918;73.504;2023-05-23T00:07:11;101216.34;;;15.03;46.22
59487;BME280;45298;54.918;73.504;2023-05-23T00:09:40;101217.41;;;15.00;45.88
59487;BME280;45298;54.918;73.504;2023-05-23T00:12:09;101226.44;;;14.98;46.69
59487;BME280;45298;54.918;73.504;2023-05-23T00:14:39;101208.13;;;14.77;46.43
59487;BME280;45298;54.918;73.504;2023-05-23T00:17:08;101216.31;;;14.74;47.14
59487;BME280;45298;54.918;73.504;2023-05-23T00:19:38;101221.75;;;14.72;46.58
59487;BME280;45298;54.918;73.504;2023-05-23T00:22:07;101228.16;;;14.70;46.30
59487;BME280;45298;54.918;73.504;2023-05-23T00:24:36;101213.31;;;14.64;46.76
59487;BME280;45298;54.918;73.504;2023-05-23T00:27:05;101208.59;;;14.53;46.45
59487;BME280;45298;54.918;73.504;2023-05-23T00:29:34;101198.50;;;14.44;47.17
59487;BME280;45298;54.918;73.504;2023-05-23T00:32:02;101224.94;;;14.63;47.52
59487;BME280;45298;54.918;73.504;2023-05-23T00:34:32;101219.22;;;14.55;47.54
59487;BME280;45298;54.918;73.504;2023-05-23T00:37:02;101216.38;;;14.58;48.99
59487;BME280;45298;54.918;73.504;2023-05-23T00:39:32;101162.44;;;14.36;48.02
59487;BME280;45298;54.918;73.504;2023-05-23T00:42:03;101235.69;;;14.77;46.99
59487;BME280;45298;54.918;73.504;2023-05-23T00:44:35;101242.25;;;14.72;46.54
59487;BME280;45298;54.918;73.504;2023-05-23T00:47:06;101226.38;;;14.99;46.28
59487;BME280;45298;54.918;73.504;2023-05-23T00:49:35;101222.63;;;15.87;44.53
59487;BME280;45298;54.918;73.504;2023-05-23T00:52:05;101220.25;;;16.63;43.26
59487;BME280;45298;54.918;73.504;2023-05-23T00:54:35;101179.72;;;17.06;42.29
59487;BME280;45298;54.918;73.504;2023-05-23T00:57:05;101220.81;;;17.81;41.01
59487;BME280;45298;54.918;73.504;2023-05-23T00:59:35;101224.28;;;18.32;40.40
59487;BME280;45298;54.918;73.504;2023-05-23T01:02:05;101244.88;;;18.79;39.21
59487;BME280;45298;54.918;73.504;2023-05-23T01:04:35;101231.47;;;18.90;38.81
59487;BME280;45298;54.918;73.504;2023-05-23T01:07:04;101244.34;;;19.32;37.88
59487;BME280;45298;54.918;73.504;2023-05-23T01:09:33;101235.41;;;19.43;37.41
59487;BME280;45298;54.918;73.504;2023-05-23T01:20:39;101240.09;;;20.50;35.91
59487;BME280;45298;54.918;73.504;2023-05-23T01:28:25;101254.06;;;20.97;35.51
59487;BME280;45298;54.918;73.504;2023-05-23T01:30:56;101254.41;;;21.45;34.90
59487;BME280;45298;54.918;73.504;2023-05-23T01:33:27;101249.59;;;21.18;35.21
59487;BME280;45298;54.918;73.504;2023-05-23T01:36:00;101250.38;;;20.98;34.92
59487;BME280;45298;54.918;73.504;2023-05-23T01:38:32;101254.97;;;21.08;35.03
59487;BME280;45298;54.918;73.504;2023-05-23T01:41:01;101252.41;;;21.06;34.84
59487;BME280;45298;54.918;73.504;2023-05-23T01:43:31;101245.47;;;20.82;35.55
59487;BME280;45298;54.918;73.504;2023-05-23T01:46:00;101258.06;;;20.40;36.11
59487;BME280;45298;54.918;73.504;2023-05-23T01:48:30;101258.59;;;20.22;36.51
59487;BME280;45298;54.918;73.504;2023-05-23T01:51:00;101255.00;;;20.33;37.59
59487;BME280;45298;54.918;73.504;2023-05-23T01:53:30;101250.50;;;20.54;36.41
59487;BME280;45298;54.918;73.504;2023-05-23T01:56:00;101250.69;;;20.63;36.64
59487;BME280;45298;54.918;73.504;2023-05-23T01:58:30;101258.81;;;20.84;36.29
59487;BME280;45298;54.918;73.504;2023-05-23T02:01:00;101258.06;;;21.03;35.94
59487;BME280;45298;54.918;73.504;2023-05-23T02:03:29;101263.56;;;21.23;35.69
59487;BME280;45298;54.918;73.504;2023-05-23T02:06:01;101263.03;;;21.39;35.69
59487;BME280;45298;54.918;73.504;2023-05-23T02:08:31;101251.78;;;21.24;35.90
59487;BME280;45298;54.918;73.504;2023-05-23T02:11:04;101267.50;;;21.59;36.87
59487;BME280;45298;54.918;73.504;2023-05-23T02:13:35;101254.94;;;21.80;35.33
59487;BME280;45298;54.918;73.504;2023-05-23T02:16:05;101274.00;;;21.88;34.88
59487;BME280;45298;54.918;73.504;2023-05-23T02:18:34;101239.56;;;21.70;34.95
59487;BME280;45298;54.918;73.504;2023-05-23T02:21:05;101255.50;;;21.73;34.55
59487;BME280;45298;54.918;73.504;2023-05-23T02:23:36;101248.69;;;21.79;35.44
59487;BME280;45298;54.918;73.504;2023-05-23T02:26:05;101277.31;;;22.01;34.56
59487;BME280;45298;54.918;73.504;2023-05-23T02:28:35;101261.66;;;21.95;34.42
59487;BME280;45298;54.918;73.504;2023-05-23T02:31:04;101265.91;;;22.08;34.91
59487;BME280;45298;54.918;73.504;2023-05-23T02:33:33;101254.13;;;22.09;35.30
59487;BME280;45298;54.918;73.504;2023-05-23T02:36:03;101283.31;;;22.44;35.69
59487;BME280;45298;54.918;73.504;2023-05-23T02:38:35;101269.94;;;22.62;34.55
59487;BME280;45298;54.918;73.504;2023-05-23T02:41:04;101282.81;;;22.88;33.60
59487;BME280;45298;54.918;73.504;2023-05-23T02:43:33;101272.41;;;23.03;33.14
59487;BME280;45298;54.918;73.504;2023-05-23T02:46:02;101270.22;;;23.17;32.87
59487;BME280;45298;54.918;73.504;2023-05-23T02:48:32;101280.84;;;23.38;31.85
59487;BME280;45298;54.918;73.504;2023-05-23T02:51:01;101281.59;;;23.30;33.43
59487;BME280;45298;54.918;73.504;2023-05-23T02:53:30;101290.69;;;23.39;32.77
59487;BME280;45298;54.918;73.504;2023-05-23T02:55:59;101244.34;;;23.04;32.53
59487;BME280;45298;54.918;73.504;2023-05-23T02:58:28;101293.56;;;23.18;32.13
59487;BME280;45298;54.918;73.504;2023-05-23T03:00:57;101296.97;;;23.20;33.14
59487;BME280;45298;54.918;73.504;2023-05-23T03:03:29;101284.28;;;23.40;32.08
59487;BME280;45298;54.918;73.504;2023-05-23T03:06:02;101302.03;;;23.52;32.10
59487;BME280;45298;54.918;73.504;2023-05-23T03:08:32;101285.38;;;23.75;32.27
59487;BME280;45298;54.918;73.504;2023-05-23T03:11:01;101296.91;;;23.95;32.43
59487;BME280;45298;54.918;73.504;2023-05-23T03:13:30;101293.19;;;24.24;32.11
59487;BME280;45298;54.918;73.504;2023-05-23T03:15:59;101299.06;;;24.56;30.83
59487;BME280;45298;54.918;73.504;2023-05-23T03:18:28;101282.56;;;24.49;31.09
59487;BME280;45298;54.918;73.504;2023-05-23T03:20:57;101280.78;;;24.58;31.25
59487;BME280;45298;54.918;73.504;2023-05-23T03:23:26;101287.50;;;24.72;29.64
59487;BME280;45298;54.918;73.504;2023-05-23T03:25:55;101282.00;;;24.64;30.32
59487;BME280;45298;54.918;73.504;2023-05-23T03:28:24;101291.31;;;24.79;29.53
59487;BME280;45298;54.918;73.504;2023-05-23T03:30:53;101243.88;;;24.21;28.81
59487;BME280;45298;54.918;73.504;2023-05-23T03:33:22;101276.31;;;24.12;29.69
59487;BME280;45298;54.918;73.504;2023-05-23T03:35:51;101278.09;;;24.22;29.17
59487;BME280;45298;54.918;73.504;2023-05-23T03:38:20;101274.91;;;24.08;29.34
59487;BME280;45298;54.918;73.504;2023-05-23T03:40:49;101281.03;;;24.28;30.19
59487;BME280;45298;54.918;73.504;2023-05-23T03:43:18;101286.19;;;24.58;29.94
59487;BME280;45298;54.918;73.504;2023-05-23T03:45:48;101271.41;;;24.70;29.74
59487;BME280;45298;54.918;73.504;2023-05-23T03:48:17;101271.13;;;24.82;29.21
59487;BME280;45298;54.918;73.504;2023-05-23T03:50:49;101266.34;;;24.76;29.05
59487;BME280;45298;54.918;73.504;2023-05-23T03:53:18;101290.06;;;24.55;28.83
59487;BME280;45298;54.918;73.504;2023-05-23T03:55:47;101269.50;;;24.26;29.56
59487;BME280;45298;54.918;73.504;2023-05-23T03:58:16;101297.22;;;24.38;29.85
59487;BME280;45298;54.918;73.504;2023-05-23T04:00:49;101279.94;;;24.21;29.92
59487;BME280;45298;54.918;73.504;2023-05-23T04:03:20;101279.72;;;24.14;29.70
59487;BME280;45298;54.918;73.504;2023-05-23T04:05:52;101293.75;;;24.10;30.83
59487;BME280;45298;54.918;73.504;2023-05-23T04:08:21;101293.03;;;24.44;30.33
59487;BME280;45298;54.918;73.504;2023-05-23T04:10:50;101282.78;;;24.56;30.62
59487;BME280;45298;54.918;73.504;2023-05-23T04:13:21;101266.34;;;24.76;30.30
59487;BME280;45298;54.918;73.504;2023-05-23T04:15:53;101283.03;;;24.81;30.56
59487;BME280;45298;54.918;73.504;2023-05-23T04:18:25;101263.25;;;24.70;30.37
59487;BME280;45298;54.918;73.504;2023-05-23T04:20:54;101232.41;;;24.71;29.51
59487;BME280;45298;54.918;73.504;2023-05-23T04:23:23;101269.19;;;24.92;29.46
59487;BME280;45298;54.918;73.504;2023-05-23T04:25:53;101275.41;;;24.66;29.46
59487;BME280;45298;54.918;73.504;2023-05-23T04:28:27;101287.91;;;24.41;30.11
59487;BME280;45298;54.918;73.504;2023-05-23T04:30:57;101284.28;;;24.50;30.92
59487;BME280;45298;54.918;73.504;2023-05-23T04:33:29;101271.31;;;24.80;30.07
59487;BME280;45298;54.918;73.504;2023-05-23T04:35:58;101299.44;;;25.05;29.29
59487;BME280;45298;54.918;73.504;2023-05-23T04:38:27;101294.56;;;24.65;29.21
59487;BME280;45298;54.918;73.504;2023-05-23T04:40:56;101284.38;;;24.40;29.57
59487;BME280;45298;54.918;73.504;2023-05-23T04:43:41;101277.38;;;24.38;29.29
59487;BME280;45298;54.918;73.504;2023-05-23T04:46:32;101293.00;;;24.62;28.41
59487;BME280;45298;54.918;73.504;2023-05-23T04:49:11;101286.25;;;24.66;27.73
59487;BME280;45298;54.918;73.504;2023-05-23T04:51:42;101284.91;;;24.44;29.39
59487;BME280;45298;54.918;73.504;2023-05-23T04:54:17;101296.59;;;24.81;27.21
59487;BME280;45298;54.918;73.504;2023-05-23T04:56:46;101201.47;;;24.38;27.95
59487;BME280;45298;54.918;73.504;2023-05-23T04:59:18;101272.09;;;24.99;28.40
59487;BME280;45298;54.918;73.504;2023-05-23T05:01:47;101270.28;;;25.08;28.25
59487;BME280;45298;54.918;73.504;2023-05-23T05:04:16;101269.25;;;25.00;26.36
59487;BME280;45298;54.918;73.504;2023-05-23T05:06:45;101291.47;;;24.78;25.89
59487;BME280;45298;54.918;73.504;2023-05-23T05:09:16;101286.03;;;24.78;25.81
59487;BME280;45298;54.918;73.504;2023-05-23T05:11:46;101274.00;;;24.80;25.55
59487;BME280;45298;54.918;73.504;2023-05-23T05:14:15;101224.63;;;24.50;25.65
59487;BME280;45298;54.918;73.504;2023-05-23T05:16:43;101221.72;;;24.52;26.11
59487;BME280;45298;54.918;73.504;2023-05-23T05:19:15;101265.47;;;25.01;25.52
59487;BME280;45298;54.918;73.504;2023-05-23T05:21:45;101251.25;;;24.99;25.50
59487;BME280;45298;54.918;73.504;2023-05-23T05:24:13;101263.47;;;25.03;25.37
59487;BME280;45298;54.918;73.504;2023-05-23T05:26:43;101248.47;;;24.91;25.29
59487;BME280;45298;54.918;73.504;2023-05-23T05:29:11;101242.94;;;25.01;25.15
59487;BME280;45298;54.918;73.504;2023-05-23T05:31:41;101253.88;;;25.17;25.46
59487;BME280;45298;54.918;73.504;2023-05-23T05:34:12;101251.00;;;25.19;24.93
59487;BME280;45298;54.918;73.504;2023-05-23T05:36:41;101250.47;;;25.15;24.96
59487;BME280;45298;54.918;73.504;2023-05-23T05:39:16;101248.41;;;25.44;24.88
59487;BME280;45298;54.918;73.504;2023-05-23T05:41:45;101235.84;;;25.43;23.78
59487;BME280;45298;54.918;73.504;2023-05-23T05:44:14;101254.22;;;25.49;23.69
59487;BME280;45298;54.918;73.504;2023-05-23T05:46:45;101247.59;;;25.17;23.39
59487;BME280;45298;54.918;73.504;2023-05-23T05:49:16;101248.63;;;25.24;24.33
59487;BME280;45298;54.918;73.504;2023-05-23T05:51:45;101260.00;;;25.54;23.97
59487;BME280;45298;54.918;73.504;2023-05-23T05:54:14;101248.13;;;25.63;23.63
59487;BME280;45298;54.918;73.504;2023-05-23T05:56:46;101241.91;;;25.37;23.82
59487;BME280;45298;54.918;73.504;2023-05-23T05:59:15;101248.41;;;25.44;23.25
59487;BME280;45298;54.918;73.504;2023-05-23T06:01:44;101247.56;;;25.43;23.18
59487;BME280;45298;54.918;73.504;2023-05-23T06:04:14;101233.91;;;25.35;23.76
59487;BME280;45298;54.918;73.504;2023-05-23T06:06:43;101245.31;;;25.39;23.18
59487;BME280;45298;54.918;73.504;2023-05-23T06:09:12;101219.78;;;25.23;23.62
59487;BME280;45298;54.918;73.504;2023-05-23T06:11:42;101229.25;;;25.45;23.48
59487;BME280;45298;54.918;73.504;2023-05-23T06:14:11;101239.25;;;25.45;23.57
59487;BME280;45298;54.918;73.504;2023-05-23T06:16:43;101221.91;;;25.38;23.69
59487;BME280;45298;54.918;73.504;2023-05-23T06:19:12;101233.22;;;25.68;23.74
59487;BME280;45298;54.918;73.504;2023-05-23T06:21:41;101220.00;;;25.73;22.80
59487;BME280;45298;54.918;73.504;2023-05-23T06:24:11;101222.31;;;25.51;23.17
59487;BME280;45298;54.918;73.504;2023-05-23T06:26:40;101204.31;;;25.15;22.81
59487;BME280;45298;54.918;73.504;2023-05-23T06:29:09;101212.47;;;25.15;22.81
59487;BME280;45298;54.918;73.504;2023-05-23T06:31:39;101194.91;;;24.93;23.18
59487;BME280;45298;54.918;73.504;2023-05-23T06:34:11;101172.00;;;24.96;23.03
59487;BME280;45298;54.918;73.504;2023-05-23T06:36:40;101212.69;;;25.30;22.96
59487;BME280;45298;54.918;73.504;2023-05-23T06:39:10;101206.25;;;25.31;22.35
59487;BME280;45298;54.918;73.504;2023-05-23T06:41:39;101221.84;;;25.29;22.33
59487;BME280;45298;54.918;73.504;2023-05-23T06:44:08;101203.63;;;25.13;22.72
59487;BME280;45298;54.918;73.504;2023-05-23T06:46:42;101221.28;;;25.52;22.47
59487;BME280;45298;54.918;73.504;2023-05-23T06:49:13;101163.09;;;25.12;22.20
59487;BME280;45298;54.918;73.504;2023-05-23T06:51:44;101210.06;;;25.47;22.51
59487;BME280;45298;54.918;73.504;2023-05-23T06:54:16;101201.13;;;25.71;21.89
59487;BME280;45298;54.918;73.504;2023-05-23T06:56:45;101198.94;;;25.75;21.50
59487;BME280;45298;54.918;73.504;2023-05-23T06:59:14;101193.19;;;25.78;21.91
59487;BME280;45298;54.918;73.504;2023-05-23T07:01:43;101198.28;;;26.06;22.03
59487;BME280;45298;54.918;73.504;2023-05-23T08:10:36;101137.53;;;26.80;20.46
59487;BME280;45298;54.918;73.504;2023-05-23T08:13:14;101130.03;;;26.74;20.71
59487;BME280;45298;54.918;73.504;2023-05-23T08:16:03;101129.69;;;26.85;21.10
59487;BME280;45298;54.918;73.504;2023-05-23T08:18:32;101162.44;;;27.00;21.19
59487;BME280;45298;54.918;73.504;2023-05-23T08:21:01;101146.22;;;26.67;21.03
59487;BME280;45298;54.918;73.504;2023-05-23T08:23:30;101144.53;;;26.58;21.49
59487;BME280;45298;54.918;73.504;2023-05-23T08:25:59;101153.84;;;26.72;21.21
59487;BME280;45298;54.918;73.504;2023-05-23T08:28:30;101147.97;;;26.43;20.68
59487;BME280;45298;54.918;73.504;2023-05-23T08:31:02;101146.97;;;26.03;20.91
59487;BME280;45298;54.918;73.504;2023-05-23T08:33:31;101139.31;;;25.98;21.08
59487;BME280;45298;54.918;73.504;2023-05-23T08:36:00;101136.09;;;26.11;20.72
59487;BME280;45298;54.918;73.504;2023-05-23T08:38:29;101155.97;;;25.95;20.40
59487;BME280;45298;54.918;73.504;2023-05-23T08:41:17;101135.56;;;25.91;20.64
59487;BME280;45298;54.918;73.504;2023-05-23T08:43:48;101141.22;;;25.98;20.08
59487;BME280;45298;54.918;73.504;2023-05-23T08:46:24;101143.09;;;25.89;19.24
59487;BME280;45298;54.918;73.504;2023-05-23T08:48:55;101139.13;;;26.00;20.14
59487;BME280;45298;54.918;73.504;2023-05-23T08:51:27;101138.66;;;26.13;19.84
59487;BME280;45298;54.918;73.504;2023-05-23T08:54:01;101140.88;;;26.34;19.68
59487;BME280;45298;54.918;73.504;2023-05-23T08:56:30;101141.53;;;26.36;20.49
59487;BME280;45298;54.918;73.504;2023-05-23T08:58:59;101145.59;;;26.40;19.73
59487;BME280;45298;54.918;73.504;2023-05-23T09:01:29;101118.44;;;26.23;19.82
59487;BME280;45298;54.918;73.504;2023-05-23T09:04:05;101130.78;;;26.51;20.19
59487;BME280;45298;54.918;73.504;2023-05-23T09:06:54;101135.91;;;26.46;18.72
59487;BME280;45298;54.918;73.504;2023-05-23T09:09:25;101121.34;;;26.22;18.54
59487;BME280;45298;54.918;73.504;2023-05-23T09:11:54;101108.25;;;26.17;18.59
59487;BME280;45298;54.918;73.504;2023-05-23T09:14:23;101138.63;;;26.46;18.30
59487;BME280;45298;54.918;73.504;2023-05-23T09:17:00;101093.47;;;26.28;18.40
59487;BME280;45298;54.918;73.504;2023-05-23T09:19:32;101131.66;;;26.43;18.25
59487;BME280;45298;54.918;73.504;2023-05-23T09:22:14;101132.81;;;26.49;19.05
59487;BME280;45298;54.918;73.504;2023-05-23T09:24:57;101106.00;;;26.37;17.86
59487;BME280;45298;54.918;73.504;2023-05-23T09:27:27;101120.63;;;26.45;18.18
59487;BME280;45298;54.918;73.504;2023-05-23T09:29:56;101120.03;;;26.66;17.82
59487;BME280;45298;54.918;73.504;2023-05-23T09:32:26;101119.06;;;26.50;18.40
59487;BME280;45298;54.918;73.504;2023-05-23T09:35:00;101132.94;;;26.64;18.72
59487;BME280;45298;54.918;73.504;2023-05-23T09:37:34;101126.97;;;26.68;18.87
59487;BME280;45298;54.918;73.504;2023-05-23T09:40:09;101113.63;;;26.50;18.61
59487;BME280;45298;54.918;73.504;2023-05-23T09:42:46;101104.78;;;26.48;19.71
59487;BME280;45298;54.918;73.504;2023-05-23T09:45:15;101097.84;;;26.37;19.71
59487;BME280;45298;54.918;73.504;2023-05-23T09:47:51;101101.88;;;26.50;19.23
59487;BME280;45298;54.918;73.504;2023-05-23T09:50:21;101104.78;;;26.48;19.04
59487;BME280;45298;54.918;73.504;2023-05-23T09:52:50;101091.56;;;26.20;19.52
59487;BME280;45298;54.918;73.504;2023-05-23T09:55:21;101104.69;;;26.25;19.23
59487;BME280;45298;54.918;73.504;2023-05-23T09:57:53;101097.69;;;26.22;19.70
59487;BME280;45298;54.918;73.504;2023-05-23T10:00:26;101093.47;;;26.12;19.59
59487;BME280;45298;54.918;73.504;2023-05-23T10:03:10;101099.75;;;25.95;19.69
59487;BME280;45298;54.918;73.504;2023-05-23T10:13:27;101087.84;;;26.05;19.61
59487;BME280;45298;54.918;73.504;2023-05-23T10:16:04;101074.78;;;26.17;19.54
59487;BME280;45298;54.918;73.504;2023-05-23T10:18:42;101097.69;;;26.22;19.91
59487;BME280;45298;54.918;73.504;2023-05-23T10:21:17;101093.47;;;26.12;19.61
59487;BME280;45298;54.918;73.504;2023-05-23T10:23:47;101075.28;;;25.87;19.58
59487;BME280;45298;54.918;73.504;2023-05-23T10:26:17;101079.19;;;25.93;20.21
59487;BME280;45298;54.918;73.504;2023-05-23T10:28:47;101079.00;;;26.03;20.40
59487;BME280;45298;54.918;73.504;2023-05-23T10:31:17;101096.03;;;26.13;19.03
59487;BME280;45298;54.918;73.504;2023-05-23T10:33:53;101093.63;;;26.10;19.12
59487;BME280;45298;54.918;73.504;2023-05-23T10:36:37;101097.34;;;26.01;18.47
59487;BME280;45298;54.918;73.504;2023-05-23T10:41:51;101094.66;;;25.76;18.83
59487;BME280;45298;54.918;73.504;2023-05-23T10:44:30;101089.56;;;25.73;19.10
59487;BME280;45298;54.918;73.504;2023-05-23T10:47:00;101100.09;;;25.76;19.86
59487;BME280;45298;54.918;73.504;2023-05-23T10:49:44;101084.13;;;25.56;19.78
59487;BME280;45298;54.918;73.504;2023-05-23T10:52:15;101092.59;;;25.61;19.89
59487;BME280;45298;54.918;73.504;2023-05-23T10:54:52;101105.88;;;25.56;19.93
59487;BME280;45298;54.918;73.504;2023-05-23T10:57:25;101099.06;;;25.60;19.89
59487;BME280;45298;54.918;73.504;2023-05-23T10:59:57;101070.88;;;25.45;19.55
59487;BME280;45298;54.918;73.504;2023-05-23T11:02:27;101067.25;;;25.36;20.15
59487;BME280;45298;54.918;73.504;2023-05-23T11:05:18;101084.75;;;25.42;20.09
59487;BME280;45298;54.918;73.504;2023-05-23T11:08:09;101087.47;;;25.42;19.67
59487;BME280;45298;54.918;73.504;2023-05-23T11:11:01;101091.56;;;25.38;19.75
59487;BME280;45298;54.918;73.504;2023-05-23T11:13:54;101087.84;;;25.47;19.58
59487;BME280;45298;54.918;73.504;2023-05-23T11:16:28;101033.28;;;25.15;20.37
59487;BME280;45298;54.918;73.504;2023-05-23T11:22:10;101086.31;;;25.44;20.30
59487;BME280;45298;54.918;73.504;2023-05-23T11:24:52;101057.59;;;25.17;20.53
59487;BME280;45298;54.918;73.504;2023-05-23T11:27:26;101089.69;;;25.30;19.91
59487;BME280;45298;54.918;73.504;2023-05-23T11:30:09;101075.56;;;25.18;20.43
59487;BME280;45298;54.918;73.504;2023-05-23T11:32:46;101064.16;;;25.14;20.56
59487;BME280;45298;54.918;73.504;2023-05-23T11:35:18;101062.81;;;25.10;19.84
59487;BME280;45298;54.918;73.504;2023-05-23T11:37:48;101054.66;;;25.02;20.30
59487;BME280;45298;54.918;73.504;2023-05-23T11:40:44;101079.63;;;25.14;20.42
59487;BME280;45298;54.918;73.504;2023-05-23T11:43:17;101057.53;;;25.00;20.57
59487;BME280;45298;54.918;73.504;2023-05-23T11:45:47;101081.66;;;25.12;20.97
59487;BME280;45298;54.918;73.504;2023-05-23T11:48:16;101071.31;;;25.07;20.71
59487;BME280;45298;54.918;73.504;2023-05-23T11:50:50;101062.97;;;25.09;20.52
59487;BME280;45298;54.918;73.504;2023-05-23T11:53:21;101070.63;;;25.13;20.56
59487;BME280;45298;54.918;73.504;2023-05-23T11:55:57;101017.78;;;24.83;20.50
59487;BME280;45298;54.918;73.504;2023-05-23T11:58:36;101055.16;;;25.05;20.49
59487;BME280;45298;54.918;73.504;2023-05-23T12:01:07;101066.00;;;24.97;20.84
59487;BME280;45298;54.918;73.504;2023-05-23T12:03:50;101080.22;;;24.91;20.27
59487;BME280;45298;54.918;73.504;2023-05-23T12:06:21;101064.38;;;24.70;20.88
59487;BME280;45298;54.918;73.504;2023-05-23T12:08:52;101079.94;;;24.68;20.47
59487;BME280;45298;54.918;73.504;2023-05-23T12:11:21;101078.19;;;24.58;20.70
59487;BME280;45298;54.918;73.504;2023-05-23T12:13:52;101077.72;;;24.63;20.50
59487;BME280;45298;54.918;73.504;2023-05-23T12:16:21;101065.81;;;24.56;21.19
59487;BME280;45298;54.918;73.504;2023-05-23T12:18:52;101061.91;;;24.50;21.23
59487;BME280;45298;54.918;73.504;2023-05-23T12:21:24;101064.06;;;24.47;20.74
59487;BME280;45298;54.918;73.504;2023-05-23T12:23:55;101058.75;;;24.28;21.15
59487;BME280;45298;54.918;73.504;2023-05-23T12:26:24;101077.44;;;24.40;20.87
59487;BME280;45298;54.918;73.504;2023-05-23T12:28:53;101042.91;;;24.16;20.66
59487;BME280;45298;54.918;73.504;2023-05-23T12:31:24;101069.91;;;24.25;21.21
59487;BME280;45298;54.918;73.504;2023-05-23T12:33:54;101065.31;;;24.26;21.43
59487;BME280;45298;54.918;73.504;2023-05-23T12:36:26;101067.34;;;24.24;20.92
59487;BME280;45298;54.918;73.504;2023-05-23T12:39:04;101046.41;;;24.08;21.05
59487;BME280;45298;54.918;73.504;2023-05-23T12:41:36;101048.97;;;24.09;21.37
59487;BME280;45298;54.918;73.504;2023-05-23T12:44:05;101055.44;;;24.17;21.53
59487;BME280;45298;54.918;73.504;2023-05-23T12:46:34;101057.09;;;24.09;21.48
59487;BME280;45298;54.918;73.504;2023-05-23T12:49:04;101047.06;;;24.02;21.67
59487;BME280;45298;54.918;73.504;2023-05-23T12:51:33;101043.81;;;23.98;21.75
59487;BME280;45298;54.918;73.504;2023-05-23T12:54:02;101077.75;;;24.10;21.57
59487;BME280;45298;54.918;73.504;2023-05-23T12:56:31;101073.84;;;24.05;21.61
59487;BME280;45298;54.918;73.504;2023-05-23T12:59:02;101052.84;;;23.89;21.52
59487;BME280;45298;54.918;73.504;2023-05-23T13:01:31;101069.22;;;23.97;21.28
59487;BME280;45298;54.918;73.504;2023-05-23T13:04:01;101063.69;;;23.89;21.99
59487;BME280;45298;54.918;73.504;2023-05-23T13:06:31;101071.13;;;23.87;21.78
59487;BME280;45298;54.918;73.504;2023-05-23T13:09:00;101059.22;;;23.79;21.79
59487;BME280;45298;54.918;73.504;2023-05-23T13:11:29;101057.66;;;23.77;21.56
59487;BME280;45298;54.918;73.504;2023-05-23T13:13:58;101066.97;;;23.74;21.64
59487;BME280;45298;54.918;73.504;2023-05-23T13:16:27;101054.91;;;23.68;22.18
59487;BME280;45298;54.918;73.504;2023-05-23T13:18:56;101069.47;;;23.67;21.61
59487;BME280;45298;54.918;73.504;2023-05-23T13:21:25;101053.78;;;23.53;22.10
59487;BME280;45298;54.918;73.504;2023-05-23T13:23:54;101045.78;;;23.51;22.00
59487;BME280;45298;54.918;73.504;2023-05-23T13:26:23;101044.69;;;23.44;21.87
59487;BME280;45298;54.918;73.504;2023-05-23T13:28:53;101040.53;;;23.32;21.77
59487;BME280;45298;54.918;73.504;2023-05-23T13:31:22;101057.38;;;23.26;21.78
59487;BME280;45298;54.918;73.504;2023-05-23T13:33:51;101057.84;;;23.21;21.71
59487;BME280;45298;54.918;73.504;2023-05-23T13:36:20;101072.53;;;23.18;21.63
59487;BME280;45298;54.918;73.504;2023-05-23T13:38:49;101041.03;;;22.99;22.05
59487;BME280;45298;54.918;73.504;2023-05-23T13:41:18;101048.38;;;23.07;22.24
59487;BME280;45298;54.918;73.504;2023-05-23T13:43:47;100977.13;;;22.52;22.32
59487;BME280;45298;54.918;73.504;2023-05-23T13:46:16;101045.50;;;22.90;22.39
59487;BME280;45298;54.918;73.504;2023-05-23T13:48:45;101047.97;;;22.84;22.54
59487;BME280;45298;54.918;73.504;2023-05-23T13:51:14;101052.41;;;22.75;22.76
59487;BME280;45298;54.918;73.504;2023-05-23T13:53:43;101054.13;;;22.76;22.88
59487;BME280;45298;54.918;73.504;2023-05-23T13:56:14;101038.00;;;22.56;23.32
59487;BME280;45298;54.918;73.504;2023-05-23T13:58:43;101054.06;;;22.58;23.29
59487;BME280;45298;54.918;73.504;2023-05-23T14:01:16;101061.34;;;22.57;23.66
59487;BME280;45298;54.918;73.504;2023-05-23T14:03:45;101033.34;;;22.39;24.14
59487;BME280;45298;54.918;73.504;2023-05-23T14:06:14;101052.97;;;22.41;24.15
59487;BME280;45298;54.918;73.504;2023-05-23T14:08:43;101056.09;;;22.36;24.08
59487;BME280;45298;54.918;73.504;2023-05-23T14:11:12;101050.72;;;22.26;23.87
59487;BME280;45298;54.918;73.504;2023-05-23T14:13:40;101044.22;;;22.19;24.01
59487;BME280;45298;54.918;73.504;2023-05-23T14:16:09;101059.91;;;22.15;24.41
59487;BME280;45298;54.918;73.504;2023-05-23T14:18:38;101045.28;;;21.98;24.21
59487;BME280;45298;54.918;73.504;2023-05-23T14:21:08;101045.72;;;21.94;24.43
59487;BME280;45298;54.918;73.504;2023-05-23T14:23:36;101069.31;;;21.92;24.65
59487;BME280;45298;54.918;73.504;2023-05-23T14:26:05;101069.34;;;21.82;24.69
59487;BME280;45298;54.918;73.504;2023-05-23T14:28:34;101047.75;;;21.62;25.07
59487;BME280;45298;54.918;73.504;2023-05-23T14:31:04;101069.06;;;21.65;25.16
59487;BME280;45298;54.918;73.504;2023-05-23T14:33:33;101070.88;;;21.55;25.55
59487;BME280;45298;54.918;73.504;2023-05-23T14:36:02;101055.66;;;21.34;25.61